Adrian, OR

4:45 AM MDT on October 01, 2014 (GMT -0600)
Owyhee Junction | Change Station
CLOSE
Current Station
Personal Weather Station
Location: Nyssa, OR
Elevation: 2210 ft
Nearby Weather Stations

Elev 2210 ft 43.79 °N, 117.10 °W | Updated 5 minutes ago

Partly Cloudy
Partly Cloudy
47.6 °F
Feels Like 45 °F
N
5.0
Wind Variable Wind from NW

Today
High -- | Low -- °F
--% Chance of Precip.
Yesterday
High -- | Low -- °F
Precip. -- in
7:45 AM 7:29 PM
Waxing Crescent, 46% visible
Pressure 30.11 in
Visibility 10.0 miles
Clouds Clear
Windchill 45 °F
Dew Point 39 °F
Humidity 73%
Rainfall 0.00 in
Snow Depth 0 in , 1 in , 0 in
UV 0 out of 12
Pollen 7.90 out of 12
Air Quality Not available.
Flu Activity Not available.
METAR KEUL 011035Z AUTO 30004KT 10SM CLR 07/00 A3011 RMK AO1

More Conditions Fewer Conditions

Pressure 30.11 in
Visibility 10.0 miles
Clouds Clear
Windchill 45 °F
Dew Point 39 °F
Humidity 73%
Rainfall 0.00 in
Snow Depth 0 in , 1 in , 0 in
UV 0 out of 12
Pollen 7.90 out of 12
Air Quality Not available.
Flu Activity Not available.
METAR KEUL 011035Z AUTO 30004KT 10SM CLR 07/00 A3011 RMK AO1

More Conditions Fewer Conditions

10-Day Weather Forecast

Almanac

Astronomy

Oct. 01, 2014 Rise Set
Actual Time 7:45 AM MDT 7:29 PM MDT
Civil Twilight 7:17 AM MDT 7:57 PM MDT
Nautical Twilight 6:43 AM MDT 8:30 PM MDT
Astronomical Twilight 6:10 AM MDT 9:04 PM MDT
Moon 2:58 PM MDT No Moon Set
Length of Visible Light 12h 40m
Length of Day
11h 43m
Tomorrow will be 2m 58s shorter.
Waxing Crescent, 46% of the Moon is Illuminated
Today
Waxing Crescent
Oct 1
First Quarter
Oct 8
Full
Oct 15
Last Quarter
Oct 23
New

Today's Extremes

State Highs State Lows

Community

WunderPhotos

Upload Photos

1,757,910 photos uploaded!

WunderBlogs® & News

Nearby

Snow Depth

Station Depth Elevation
Silver Creek 0 in 5720 ft
Mud Ridge 1 in 3800 ft
Billie Creek Divide 0 in 5300 ft
Chemult Alternate 0 in 4760 ft
Santiam Junction 0 in 3750 ft

Earthquake Activity

City Distance Mag. Time & Date
No recent earthquake activity has been reported nearby.
Minimum magnitude displayed is 2.5.

Coastal Water Temperatures

Place Temperature
No Stations Reporting

Nearby Weather Stations